Time;durP1;ratioP1;P1;durP2;ratioP2;P2;SDS_P1;SDS_P2;PMS_P1;PMS_P2;Temp;Humidity;BMP_temperature;BMP_pressure;BME280_temperature;BME280_humidity;BME280_pressure;Samples;Min_cycle;Max_cycle;Signal;HPM_P1;HPM_P2
2022/06/03 00:01:06;;;;;;;45.83;18.15;;;;;;;20.89;45.57;93692.63;5030843;28;20522;-87
2022/06/03 00:03:38;;;;;;;45.00;17.20;;;;;;;20.89;45.67;93695.38;5044848;28;20574;-87
2022/06/03 00:06:28;;;;;;;44.70;18.92;;;;;;;20.88;45.48;93707.66;5047588;28;20261;-87
2022/06/03 00:08:56;;;;;;;40.73;16.90;;;;;;;20.90;45.79;93696.13;5068948;28;20072;-87
2022/06/03 00:12:02;;;;;;;43.15;16.95;;;;;;;20.89;45.60;93706.38;5057883;28;20292;-88
2022/06/03 00:14:27;;;;;;;40.00;16.63;;;;;;;20.89;45.53;93706.38;5031534;28;20535;-87
2022/06/03 00:17:02;;;;;;;43.95;17.80;;;;;;;20.90;45.47;93694.13;5031396;28;20113;-87
2022/06/03 00:19:49;;;;;;;40.78;15.38;;;;;;;20.90;45.61;93696.13;5065127;28;20066;-87
2022/06/03 00:22:56;;;;;;;41.50;15.63;;;;;;;20.87;45.77;93700.66;5034382;28;20077;-87
2022/06/03 00:25:32;;;;;;;36.65;14.38;;;;;;;20.88;45.62;93696.66;5036588;28;20064;-87
2022/06/03 00:28:25;;;;;;;37.13;14.40;;;;;;;20.87;45.62;93700.66;5052173;28;20037;-88
2022/06/03 00:31:13;;;;;;;36.20;16.55;;;;;;;20.86;45.56;93707.41;5068590;28;20036;-87
2022/06/03 00:33:45;;;;;;;33.15;14.80;;;;;;;20.87;45.52;93709.66;5050957;28;20090;-88
2022/06/03 00:36:38;;;;;;;39.70;16.10;;;;;;;20.87;45.63;93706.91;5033872;28;20070;-88
2022/06/03 00:39:14;;;;;;;32.92;14.15;;;;;;;20.87;45.56;93708.91;5052917;28;20029;-87
2022/06/03 00:41:45;;;;;;;37.03;13.77;;;;;;;20.85;45.57;93709.41;5034103;28;20178;-88
2022/06/03 00:44:33;;;;;;;36.88;14.18;;;;;;;20.86;45.56;93710.16;5050200;28;20407;-87
2022/06/03 00:47:36;;;;;;;31.40;13.77;;;;;;;20.85;45.64;93706.69;5032851;28;20116;-87
2022/06/03 00:50:29;;;;;;;35.08;14.35;;;;;;;20.85;45.64;93708.69;5048638;28;20458;-87
2022/06/03 00:53:16;;;;;;;33.50;13.43;;;;;;;20.85;45.36;93698.44;5048824;28;20045;-87
2022/06/03 00:56:04;;;;;;;32.92;14.38;;;;;;;20.85;45.49;93701.19;4998538;28;20051;-87
2022/06/03 00:58:44;;;;;;;30.50;13.70;;;;;;;20.84;45.55;93691.44;5036927;28;20451;-88
2022/06/03 01:01:24;;;;;;;29.02;13.73;;;;;;;20.84;45.66;93690.72;5040119;28;20048;-87
2022/06/03 01:04:04;;;;;;;30.20;11.95;;;;;;;20.84;45.45;93699.69;5015624;28;20034;-87
2022/06/03 01:06:38;;;;;;;26.48;12.45;;;;;;;20.85;45.47;93689.44;5054084;28;20067;-87
2022/06/03 01:09:20;;;;;;;29.38;12.77;;;;;;;20.84;45.42;93688.69;5050105;28;20033;-88
2022/06/03 01:12:02;;;;;;;29.30;12.40;;;;;;;20.84;45.49;93698.94;5019722;28;20043;-88
2022/06/03 01:14:37;;;;;;;28.85;11.45;;;;;;;20.84;45.56;93701.69;5050068;28;20043;-87
2022/06/03 01:17:23;;;;;;;25.98;12.02;;;;;;;20.82;45.48;93701.47;5030568;28;20368;-87
2022/06/03 01:20:03;;;;;;;29.13;12.07;;;;;;;20.84;45.57;93680.47;5012932;28;20048;-87
2022/06/03 01:22:50;;;;;;;24.27;10.90;;;;;;;20.83;45.70;93686.47;5029744;28;20060;-87
2022/06/03 01:25:33;;;;;;;23.00;10.65;;;;;;;20.83;45.59;93681.72;5029648;28;20076;-87
2022/06/03 01:28:20;;;;;;;28.42;11.95;;;;;;;20.82;45.55;93688.47;5048303;28;20037;-87
2022/06/03 01:31:01;;;;;;;28.85;12.65;;;;;;;20.82;45.52;93674.00;5051226;28;20123;-87
2022/06/03 01:33:45;;;;;;;;;;;;;;;20.84;45.35;93671.47;5033191;28;20043;-87
2022/06/03 01:36:34;;;;;;;23.83;10.95;;;;;;;20.82;45.53;93665.75;5064649;28;20367;-88
2022/06/03 01:39:21;;;;;;;24.42;11.60;;;;;;;20.81;45.58;93661.50;5035681;28;20403;-87
2022/06/03 01:41:58;;;;;;;24.45;10.20;;;;;;;20.80;45.59;93660.03;5067204;28;20541;-87
2022/06/03 01:44:55;;;;;;;29.13;11.50;;;;;;;20.81;45.45;93658.78;5048090;28;20403;-87
2022/06/03 01:48:02;;;;;;;23.60;11.32;;;;;;;20.80;45.53;93665.53;5066086;28;20040;-87
2022/06/03 01:50:40;;;;;;;22.30;10.45;;;;;;;20.78;45.73;93652.34;5028629;28;20040;-88
2022/06/03 01:53:20;;;;;;;22.20;9.50;;;;;;;20.78;45.49;93646.09;5031693;28;20032;-87
2022/06/03 01:56:07;;;;;;;21.52;10.75;;;;;;;20.79;45.45;93648.28;5065943;28;20041;-87
2022/06/03 01:59:10;;;;;;;23.67;10.15;;;;;;;20.79;45.73;93647.56;5049436;28;20090;-87
2022/06/03 02:01:44;;;;;;;22.30;10.38;;;;;;;20.78;45.47;93646.84;5052878;28;20048;-87
2022/06/03 02:04:40;;;;;;;20.00;10.52;;;;;;;20.78;45.69;93649.59;5066483;28;20043;-88
2022/06/03 02:07:22;;;;;;;19.52;10.27;;;;;;;20.80;45.62;93654.53;5047925;28;20041;-87
2022/06/03 02:10:16;;;;;;;21.67;10.38;;;;;;;20.77;45.61;93645.34;5033009;28;20083;-87
2022/06/03 02:13:11;;;;;;;25.05;9.82;;;;;;;20.77;45.56;93653.59;5031241;28;20051;-87
2022/06/03 02:15:49;;;;;;;19.48;9.20;;;;;;;20.76;45.56;93646.63;5029255;28;20056;-87
2022/06/03 02:18:42;;;;;;;24.75;10.07;;;;;;;20.77;45.60;93650.09;5017999;28;20032;-87
2022/06/03 02:21:36;;;;;;;18.17;9.90;;;;;;;20.76;45.57;93638.38;5065200;28;20423;-87
2022/06/03 02:24:13;;;;;;;18.80;9.63;;;;;;;20.76;45.41;93641.13;5065542;28;20479;-87
2022/06/03 02:27:18;;;;;;;19.77;9.38;;;;;;;20.76;45.49;93645.88;5033008;28;20465;-87
2022/06/03 02:30:24;;;;;;;21.35;9.10;;;;;;;20.77;45.56;93633.63;5028916;28;20041;-88
2022/06/03 02:32:59;;;;;;;18.27;9.27;;;;;;;20.77;45.56;93634.38;5030548;28;20052;-87
2022/06/03 02:35:43;;;;;;;13.95;8.05;;;;;;;20.76;45.58;93638.38;5046613;28;20300;-87
2022/06/03 02:38:18;;;;;;;18.33;8.93;;;;;;;20.76;45.42;93638.38;5011940;28;20040;-87
2022/06/03 02:40:49;;;;;;;19.10;8.10;;;;;;;20.75;45.61;93638.91;5029646;28;20539;-87
2022/06/03 02:43:36;;;;;;;17.55;9.27;;;;;;;20.75;45.44;93639.63;5028156;28;20037;-87
2022/06/03 02:46:29;;;;;;;17.55;8.70;;;;;;;20.74;45.56;93646.38;5028982;28;20412;-88
2022/06/03 02:49:22;;;;;;;17.20;8.45;;;;;;;20.74;45.56;93653.88;5014352;28;20029;-87
2022/06/03 02:51:57;;;;;;;16.88;8.30;;;;;;;20.74;45.45;93640.91;5013585;28;20530;-87
2022/06/03 02:54:59;;;;;;;19.55;8.00;;;;;;;20.74;45.56;93638.16;5011712;28;20048;-88
2022/06/03 02:57:43;;;;;;;16.23;8.23;;;;;;;20.74;45.44;93629.16;5028321;28;20049;-88
2022/06/03 03:00:24;;;;;;;15.35;7.72;;;;;;;20.74;45.45;93629.16;5046006;28;20158;-87
2022/06/03 03:03:19;;;;;;;16.23;7.47;;;;;;;20.74;45.44;93623.66;5047433;28;20033;-87
2022/06/03 03:06:12;;;;;;;16.35;7.53;;;;;;;20.73;45.50;93628.41;5049728;28;20187;-88
2022/06/03 03:08:56;;;;;;;14.07;7.65;;;;;;;20.73;45.59;93624.94;5048373;28;20041;-87
2022/06/03 03:11:54;;;;;;;19.23;8.25;;;;;;;20.72;45.51;93632.44;5053501;28;20045;-88
2022/06/03 03:14:48;;;;;;;14.35;7.68;;;;;;;20.73;45.52;93636.66;4947320;28;20043;-87
2022/06/03 03:17:50;;;;;;;13.73;6.90;;;;;;;20.74;45.67;93642.91;4946018;28;20113;-87
2022/06/03 03:20:31;;;;;;;15.10;6.95;;;;;;;20.72;45.36;93640.66;4948508;28;20464;-87
2022/06/03 03:23:21;;;;;;;12.70;6.95;;;;;;;20.72;45.62;93646.16;4965089;28;20126;-88
2022/06/03 03:26:01;;;;;;;14.83;7.93;;;;;;;20.72;45.54;93651.66;4945274;28;20375;-87
2022/06/03 03:28:45;;;;;;;14.93;7.80;;;;;;;20.75;45.36;93649.88;4929285;29;20046;-88
2022/06/03 03:31:28;;;;;;;12.57;6.75;;;;;;;20.75;45.42;93649.88;4945299;29;20130;-87
2022/06/03 03:34:16;;;;;;;15.68;7.15;;;;;;;20.77;45.40;93647.34;4944796;29;20801;-88
2022/06/03 03:37:05;;;;;;;13.10;6.90;;;;;;;20.79;45.31;93647.56;4945502;28;20044;-87
2022/06/03 03:39:58;;;;;;;15.53;7.60;;;;;;;20.82;45.55;93654.75;4945928;29;20058;-88
2022/06/03 03:42:39;;;;;;;13.15;7.35;;;;;;;20.83;45.07;93651.50;4945098;28;20454;-87
2022/06/03 03:45:28;;;;;;;14.18;7.32;;;;;;;20.84;45.14;93650.22;4948881;29;20047;-88
2022/06/03 03:48:09;;;;;;;15.98;7.10;;;;;;;20.85;45.30;93657.22;4933570;29;20031;-87
2022/06/03 03:50:53;;;;;;;12.73;6.15;;;;;;;20.86;45.17;93649.72;4987000;28;20057;-87
2022/06/03 03:53:34;;;;;;;13.63;6.78;;;;;;;20.86;45.26;93663.44;5024275;28;20037;-87
2022/06/03 03:56:10;;;;;;;12.88;6.47;;;;;;;20.89;45.04;93656.91;5008849;28;20069;-87
2022/06/03 03:59:12;;;;;;;16.15;6.85;;;;;;;20.91;45.16;93668.13;5024748;28;20045;-87
2022/06/03 04:01:53;;;;;;;11.52;5.85;;;;;;;20.87;44.82;93665.69;5012263;28;20045;-88
2022/06/03 04:04:56;;;;;;;8.50;5.97;;;;;;;20.80;45.03;93671.75;5027716;28;20495;-88
2022/06/03 04:07:42;;;;;;;9.77;6.10;;;;;;;20.82;44.70;93658.25;5029485;28;20037;-87
2022/06/03 04:10:23;;;;;;;10.55;5.85;;;;;;;20.84;44.73;93652.25;5026822;28;20039;-88
2022/06/03 04:13:19;;;;;;;8.48;7.20;;;;;;;20.86;44.75;93655.22;5008487;28;20049;-88
2022/06/03 04:16:21;;;;;;;8.10;6.93;;;;;;;20.86;44.88;93649.72;5010080;28;20370;-87
2022/06/03 04:19:08;;;;;;;10.70;7.10;;;;;;;20.87;45.01;93656.69;4992382;28;20515;-88
2022/06/03 04:21:46;;;;;;;10.80;7.13;;;;;;;20.89;44.88;93654.16;5028221;28;20397;-88
2022/06/03 04:24:35;;;;;;;11.43;7.40;;;;;;;20.90;44.86;93658.41;5027215;28;20034;-88
2022/06/03 04:27:22;;;;;;;19.95;7.97;;;;;;;20.86;45.04;93663.44;5027994;28;20045;-87
2022/06/03 04:30:09;;;;;;;14.50;7.72;;;;;;;20.83;45.31;93667.97;5031777;28;20045;-87
2022/06/03 04:33:12;;;;;;;10.80;6.07;;;;;;;20.80;45.23;93666.28;5028727;28;20512;-87
2022/06/03 04:36:15;;;;;;;8.90;7.22;;;;;;;20.74;45.11;93671.13;5030255;28;20666;-87
2022/06/03 04:39:14;;;;;;;12.98;6.57;;;;;;;20.76;45.07;93674.09;5015209;28;20042;-86
2022/06/03 04:42:10;;;;;;;9.13;6.55;;;;;;;20.72;45.31;93668.16;5032180;28;20091;-88
2022/06/03 04:45:06;;;;;;;24.42;7.50;;;;;;;20.72;45.51;93654.41;5031054;28;20037;-89
2022/06/03 04:47:56;;;;;;;48.30;17.02;;;;;;;20.69;45.73;93660.19;5044002;28;20041;-88
2022/06/03 04:50:27;;;;;;;28.95;10.05;;;;;;;20.69;45.72;93652.69;5017338;28;20575;-86
2022/06/03 04:53:31;;;;;;;14.60;9.82;;;;;;;20.66;45.72;93653.00;5029102;28;20483;-87
2022/06/03 04:56:08;;;;;;;19.30;11.20;;;;;;;20.69;45.73;93658.19;4999790;28;20407;-90
2022/06/03 04:58:52;;;;;;;18.27;9.30;;;;;;;20.64;45.94;93661.75;5027160;28;20145;-93
2022/06/03 05:01:23;;;;;;;17.05;8.25;;;;;;;20.62;46.04;93655.28;5026739;28;20401;-89
2022/06/03 05:04:15;;;;;;;28.48;9.18;;;;;;;20.67;45.75;93663.47;5028470;28;20045;-89
2022/06/03 05:07:08;;;;;;;34.55;10.13;;;;;;;20.75;45.64;93660.88;5006398;28;20068;-89
2022/06/03 05:09:55;;;;;;;27.95;11.18;;;;;;;20.78;45.59;93659.84;5010848;28;20575;-89
2022/06/03 05:12:23;;;;;;;43.47;14.63;;;;;;;20.84;45.38;93660.47;5028311;28;20040;-90
2022/06/03 05:15:34;;;;;;;56.97;20.80;;;;;;;20.88;45.51;93658.19;5023009;28;20047;-90
2022/06/03 05:18:10;;;;;;;64.50;25.33;;;;;;;20.96;45.24;93645.34;4996386;28;20030;-88
2022/06/03 05:21:00;;;;;;;68.95;32.92;;;;;;;20.96;45.11;93637.09;5026848;28;20054;-87
2022/06/03 05:23:48;;;;;;;80.35;34.67;;;;;;;20.98;45.20;93651.06;5027010;28;20044;-90
2022/06/03 05:26:50;;;;;;;100.70;42.38;;;;;;;21.00;45.09;93656.75;5020821;28;20038;-91
2022/06/03 05:29:26;;;;;;;93.72;41.97;;;;;;;21.07;45.31;93647.91;5035361;28;20064;-86
2022/06/03 05:32:03;;;;;;;86.95;40.47;;;;;;;21.11;44.90;93645.59;5008127;28;20088;-87
2022/06/03 05:35:02;;;;;;;117.13;45.28;;;;;;;21.16;45.16;93641.28;5027614;28;20038;-88
2022/06/03 05:37:52;;;;;;;123.93;50.90;;;;;;;21.17;45.06;93635.28;5022317;28;20034;-87
2022/06/03 05:40:36;;;;;;;126.23;55.93;;;;;;;21.19;44.78;93629.25;5007286;28;20037;-87
2022/06/03 05:43:07;;;;;;;143.45;62.80;;;;;;;21.16;44.87;93631.03;5021347;28;20112;-86
2022/06/03 05:45:52;;;;;;;122.57;54.25;;;;;;;21.14;45.06;93632.81;5026932;28;20049;-86
2022/06/03 05:48:30;;;;;;;102.50;41.17;;;;;;;21.11;45.17;93634.59;5017927;28;20045;-86
2022/06/03 05:51:20;;;;;;;112.60;38.50;;;;;;;21.05;45.77;93633.94;5008873;28;20539;-87
2022/06/03 05:54:16;;;;;;;155.18;38.63;;;;;;;21.07;46.02;93633.41;5010300;28;20060;-88
2022/06/03 05:56:46;;;;;;;133.73;39.30;;;;;;;21.09;46.03;93637.13;5009176;28;20045;-90
2022/06/03 05:59:12;;;;;;;96.20;33.50;;;;;;;21.07;46.28;93636.91;5009893;28;20231;-90
2022/06/03 06:01:47;;;;;;;67.60;26.13;;;;;;;21.07;46.17;93636.16;5026404;28;20188;-89
2022/06/03 06:04:18;;;;;;;51.35;26.83;;;;;;;21.00;46.37;93643.00;5020802;28;20782;-88
2022/06/03 06:07:11;;;;;;;94.10;57.63;;;;;;;21.01;46.49;93641.75;5026540;28;20041;-86
2022/06/03 06:09:45;;;;;;;56.42;28.92;;;;;;;21.04;46.92;93643.44;5006678;28;20041;-88
2022/06/03 06:12:13;;;;;;;56.88;26.23;;;;;;;21.08;46.94;93641.16;5038876;28;20049;-89
2022/06/03 06:14:54;;;;;;;52.10;26.63;;;;;;;21.12;46.51;93641.59;5013077;28;20045;-87
2022/06/03 06:17:39;;;;;;;57.13;37.67;;;;;;;21.14;46.55;93644.56;5006354;28;20049;-88
2022/06/03 06:20:32;;;;;;;38.70;24.58;;;;;;;21.19;46.56;93643.75;4993226;28;20053;-88
2022/06/03 06:23:20;;;;;;;36.00;23.10;;;;;;;21.24;46.56;93649.69;5008070;28;20083;-88
2022/06/03 06:26:03;;;;;;;31.15;18.35;;;;;;;21.22;46.66;93646.75;5008476;28;20065;-89
2022/06/03 06:28:49;;;;;;;35.25;23.02;;;;;;;21.20;46.63;93642.50;5009817;28;20117;-88
2022/06/03 06:31:33;;;;;;;39.33;26.00;;;;;;;21.24;46.38;93638.69;4992748;28;20045;-89
2022/06/03 06:34:26;;;;;;;42.53;27.35;;;;;;;21.27;45.98;93643.88;5026817;28;20037;-89
2022/06/03 06:37:08;;;;;;;58.40;35.70;;;;;;;21.30;46.25;93642.09;5014102;28;20068;-90
2022/06/03 06:39:44;;;;;;;72.28;41.90;;;;;;;21.32;46.01;93645.81;5010711;28;20124;-89
2022/06/03 06:42:15;;;;;;;81.47;42.70;;;;;;;21.36;46.03;93637.25;5025242;28;20045;-90
2022/06/03 06:44:49;;;;;;;84.72;45.10;;;;;;;21.35;45.92;93644.03;5009174;28;20048;-90
2022/06/03 06:47:17;;;;;;;85.90;48.42;;;;;;;21.36;46.17;93634.50;5009275;28;20136;-90
2022/06/03 06:50:03;;;;;;;87.72;46.38;;;;;;;21.37;45.77;93625.72;5027600;28;20547;-90
2022/06/03 06:52:36;;;;;;;80.88;45.53;;;;;;;21.41;45.89;93625.44;5029730;28;20504;-89
2022/06/03 06:55:06;;;;;;;77.65;45.10;;;;;;;21.43;45.58;93626.38;5031814;28;20510;-88
2022/06/03 06:57:33;;;;;;;136.48;54.83;;;;;;;21.44;45.75;93630.59;5015429;28;20029;-89
2022/06/03 07:00:19;;;;;;;108.80;50.20;;;;;;;21.41;45.66;93631.66;5013680;28;20079;-89
2022/06/03 07:02:46;;;;;;;97.68;54.78;;;;;;;21.44;45.75;93630.59;5013127;28;20056;-87
2022/06/03 07:05:39;;;;;;;131.05;67.30;;;;;;;21.45;45.67;93614.84;5013375;28;20132;-89
2022/06/03 07:08:09;;;;;;;149.30;76.07;;;;;;;21.46;45.74;93622.56;5033810;28;20261;-89
2022/06/03 07:10:38;;;;;;;180.10;79.63;;;;;;;21.47;45.81;93626.78;5013835;28;20056;-88
2022/06/03 07:13:31;;;;;;;159.98;85.78;;;;;;;21.47;45.74;93617.81;5032280;28;21039;-87
2022/06/03 07:16:15;;;;;;;172.30;86.85;;;;;;;21.47;45.85;93617.81;5007190;28;20045;-89
2022/06/03 07:21:31;;;;;;;150.50;84.13;;;;;;;21.47;46.16;93615.78;5035416;28;20044;-87
2022/06/03 07:24:09;;;;;;;158.90;84.53;;;;;;;21.50;46.00;93608.50;5031936;28;20483;-88
2022/06/03 07:26:39;;;;;;;155.60;85.85;;;;;;;21.50;46.04;93609.25;5012548;28;20056;-88
2022/06/03 07:29:07;;;;;;;156.77;80.60;;;;;;;21.50;46.00;93614.75;5029036;28;20527;-87
2022/06/03 07:31:51;;;;;;;133.50;76.20;;;;;;;21.54;46.25;93611.69;5031041;28;20091;-87
2022/06/03 07:34:19;;;;;;;146.73;79.78;;;;;;;21.48;46.18;93616.53;5029692;28;20041;-89
2022/06/03 07:36:50;;;;;;;132.88;75.85;;;;;;;21.47;46.21;93618.53;4998314;28;20041;-87
2022/06/03 07:39:53;;;;;;;133.82;75.57;;;;;;;21.48;46.00;93617.28;4997457;28;20038;-89
2022/06/03 07:42:26;;;;;;;127.18;72.82;;;;;;;21.52;46.09;93611.47;5028243;28;20087;-89
2022/06/03 07:45:06;;;;;;;123.53;70.88;;;;;;;21.51;46.01;93613.47;5012194;28;20046;-88
2022/06/03 07:47:32;;;;;;;144.43;75.00;;;;;;;21.52;46.11;93605.97;4978975;28;20038;-89
2022/06/03 07:49:59;;;;;;;119.93;66.10;;;;;;;21.51;45.88;93605.22;4993584;28;20088;-89
2022/06/03 07:52:38;;;;;;;110.30;62.50;;;;;;;21.50;46.12;93601.00;4992383;28;20044;-89
2022/06/03 07:55:11;;;;;;;159.05;77.07;;;;;;;21.51;46.10;93598.97;5010556;28;20041;-86
2022/06/03 07:57:36;;;;;;;135.23;69.88;;;;;;;21.53;46.08;93610.94;5011195;28;20119;-87
2022/06/03 08:00:04;;;;;;;128.38;66.32;;;;;;;21.55;46.19;93607.66;4992678;28;20591;-88
2022/06/03 08:02:30;;;;;;;94.32;57.97;;;;;;;21.57;46.59;93604.41;4987295;28;20037;-87
2022/06/03 08:05:05;;;;;;;87.13;48.33;;;;;;;21.55;46.83;93602.16;4988786;28;20620;-89
2022/06/03 08:13:04;;;;;;;80.18;44.45;;;;;;;21.60;46.54;93586.84;5011922;28;20095;-87
2022/06/03 08:15:33;;;;;;;92.72;48.88;;;;;;;21.59;46.26;93591.59;5006304;28;20045;-86
2022/06/03 08:18:00;;;;;;;85.70;46.08;;;;;;;21.60;46.38;93584.84;4992623;28;20580;-89
2022/06/03 08:20:26;;;;;;;80.07;44.33;;;;;;;21.61;46.34;93583.56;5015251;28;20033;-89
2022/06/03 08:22:52;;;;;;;72.60;41.75;;;;;;;21.61;46.58;93583.56;4987047;28;20041;-90
2022/06/03 08:25:20;;;;;;;73.35;42.28;;;;;;;21.61;46.50;93585.56;5008818;28;20099;-89
2022/06/03 08:27:45;;;;;;;72.00;41.25;;;;;;;21.60;46.36;93582.06;4987578;28;20049;-88
2022/06/03 08:30:13;;;;;;;86.85;41.03;;;;;;;21.62;46.50;93587.78;5016699;28;20033;-88
2022/06/03 08:32:43;;;;;;;88.55;42.28;;;;;;;21.62;46.50;93589.81;5000030;28;20368;-88
2022/06/03 08:35:10;;;;;;;183.07;47.72;;;;;;;21.61;46.61;93583.56;5019747;28;20029;-86
2022/06/03 08:37:44;;;;;;;309.95;60.45;;;;;;;21.64;46.80;93599.03;5005089;28;20041;-87
2022/06/03 08:40:34;;;;;;;446.52;78.30;;;;;;;21.62;46.68;93576.06;5019507;28;20041;-85
2022/06/03 08:43:12;;;;;;;168.23;45.88;;;;;;;21.60;46.74;93586.84;5017906;28;20420;-88
2022/06/03 08:45:43;;;;;;;244.75;59.80;;;;;;;21.60;46.76;93584.84;5004006;28;20061;-86
2022/06/03 08:48:14;;;;;;;120.97;38.75;;;;;;;21.63;46.55;93583.78;5019699;28;20046;-87
2022/06/03 08:51:08;;;;;;;108.55;36.88;;;;;;;21.63;46.89;93575.53;5022783;28;20041;-86
2022/06/03 08:54:00;;;;;;;133.65;37.13;;;;;;;21.64;46.65;93582.50;5001169;28;20050;-86
2022/06/03 08:56:30;;;;;;;138.32;39.42;;;;;;;21.66;46.84;93573.69;4995883;28;20046;-88
2022/06/03 08:58:58;;;;;;;109.10;36.63;;;;;;;21.61;47.12;93585.56;5005343;28;20045;-88
2022/06/03 09:01:48;;;;;;;106.90;35.67;;;;;;;21.61;46.90;93585.56;5005154;28;20048;-89
2022/06/03 09:04:20;;;;;;;135.40;39.50;;;;;;;21.62;46.97;93578.81;5018024;28;20065;-88
2022/06/03 09:07:06;;;;;;;116.38;37.05;;;;;;;21.63;47.04;93592.03;5026296;28;20145;-85
2022/06/03 09:09:52;;;;;;;81.38;30.92;;;;;;;21.66;46.87;93579.94;4997770;28;20042;-87
2022/06/03 09:12:33;;;;;;;77.78;30.10;;;;;;;21.67;46.77;93584.19;5025468;28;20526;-88
2022/06/03 09:15:08;;;;;;;74.30;26.98;;;;;;;21.65;47.05;93589.47;5028519;28;20038;-86
2022/06/03 09:17:38;;;;;;;77.47;31.50;;;;;;;21.68;46.80;93587.69;5010874;28;20033;-87
2022/06/03 09:20:17;;;;;;;142.30;70.80;;;;;;;21.66;46.87;93576.47;5007668;28;20046;-87
2022/06/03 09:22:44;;;;;;;115.45;49.80;;;;;;;21.69;46.84;93578.16;4992663;28;20034;-88
2022/06/03 09:25:11;;;;;;;114.93;50.80;;;;;;;21.69;46.77;93578.91;5011062;28;20057;-88
2022/06/03 09:27:36;;;;;;;118.65;55.67;;;;;;;21.71;46.70;93583.88;5014749;28;20400;-89
2022/06/03 09:30:04;;;;;;;102.80;53.97;;;;;;;21.71;46.88;93586.63;5031255;28;20116;-88
2022/06/03 09:32:31;;;;;;;126.55;61.80;;;;;;;21.77;46.69;93582.50;5030685;28;20060;-87
2022/06/03 09:35:04;;;;;;;115.82;63.60;;;;;;;21.74;46.87;93575.31;5031305;28;20131;-88
2022/06/03 09:37:31;;;;;;;126.00;63.97;;;;;;;21.76;46.89;93577.53;5047453;28;20099;-86
2022/06/03 09:39:57;;;;;;;102.07;57.35;;;;;;;21.76;46.95;93575.53;5040606;28;20041;-87
2022/06/03 09:42:23;;;;;;;108.78;60.80;;;;;;;21.81;47.13;93576.69;5010991;28;20097;-91
2022/06/03 09:44:49;;;;;;;117.10;61.30;;;;;;;21.81;47.07;93569.19;5015256;28;20041;-88
2022/06/03 09:47:16;;;;;;;122.32;62.78;;;;;;;21.80;46.89;93559.44;5014473;28;20064;-89
2022/06/03 09:49:42;;;;;;;110.80;58.28;;;;;;;21.81;47.01;93568.44;5014905;28;20045;-88
2022/06/03 09:52:10;;;;;;;106.70;55.53;;;;;;;21.81;47.26;93562.94;5023551;28;20071;-88
2022/06/03 09:54:38;;;;;;;162.32;68.13;;;;;;;21.83;46.65;93568.66;5015697;28;20036;-89
2022/06/03 09:57:21;;;;;;;206.63;121.13;;;;;;;21.85;47.46;93561.34;5031190;28;20139;-86
2022/06/03 09:59:57;;;;;;;116.78;62.63;;;;;;;21.85;46.86;93566.13;5031282;28;20092;-87
2022/06/03 10:02:23;;;;;;;76.85;44.30;;;;;;;21.83;47.12;93557.66;5039364;28;20045;-87
2022/06/03 10:04:49;;;;;;;98.65;46.33;;;;;;;21.84;47.24;93559.13;5003174;28;20059;-88
2022/06/03 10:07:14;;;;;;;170.48;52.17;;;;;;;21.83;47.33;93563.16;5028564;28;20033;-87
2022/06/03 10:12:55;;;;;;;266.13;59.22;;;;;;;21.81;47.67;93551.94;5012657;28;20060;-87
2022/06/03 10:15:38;;;;;;;197.60;52.30;;;;;;;21.83;47.73;93552.13;5018498;28;20037;-87
2022/06/03 10:18:09;;;;;;;148.27;46.72;;;;;;;21.86;47.78;93556.59;4991777;28;20059;-88
2022/06/03 10:20:35;;;;;;;249.98;103.43;;;;;;;21.88;47.88;93548.50;4960716;28;20105;-89
2022/06/03 10:23:02;;;;;;;210.68;60.42;;;;;;;21.83;47.59;93547.38;4981103;28;20204;-88
2022/06/03 10:25:28;;;;;;;566.10;356.02;;;;;;;21.84;47.66;93548.84;4972633;28;20056;-88
2022/06/03 10:27:53;;;;;;;207.68;70.18;;;;;;;21.84;47.60;93535.09;4954441;28;20046;-89
2022/06/03 10:30:30;;;;;;;158.23;49.60;;;;;;;21.84;47.49;93540.59;4941030;28;20034;-90
2022/06/03 10:32:56;;;;;;;137.25;37.10;;;;;;;21.83;47.58;93538.38;4968237;28;20557;-92
2022/06/03 10:35:27;;;;;;;146.63;40.25;;;;;;;21.82;47.39;93540.38;4956831;28;20042;-91
2022/06/03 10:37:59;;;;;;;140.05;40.72;;;;;;;21.83;47.45;93538.38;4987121;28;20038;-88
2022/06/03 10:40:26;;;;;;;150.63;39.53;;;;;;;21.87;47.53;93533.28;4968192;28;20057;-90
2022/06/03 10:42:55;;;;;;;94.75;32.50;;;;;;;21.81;47.61;93538.91;4974757;28;20046;-89
2022/06/03 10:45:34;;;;;;;101.22;34.65;;;;;;;21.81;47.77;93529.91;4954478;28;20495;-89
2022/06/03 10:47:59;;;;;;;108.10;33.47;;;;;;;21.85;48.07;93527.59;4979382;28;21035;-88
2022/06/03 10:50:38;;;;;;;97.43;32.17;;;;;;;21.84;47.65;93520.59;5030297;28;20488;-92
2022/06/03 11:01:31;;;;;;;;;;;;;;;21.79;47.44;93493.91;5015130;28;20040;-89
2022/06/03 11:03:57;;;;;;;75.28;26.27;;;;;;;21.82;47.73;93490.84;5012415;28;19925;-88
2022/06/03 11:06:28;;;;;;;61.50;24.02;;;;;;;21.82;47.68;93495.63;4994953;28;20563;-89
2022/06/03 11:08:59;;;;;;;84.43;25.35;;;;;;;21.81;47.49;93491.38;5015817;28;20094;-91
2022/06/03 11:11:44;;;;;;;60.50;23.65;;;;;;;21.76;47.89;93486.72;5019684;28;20178;-87
2022/06/03 11:14:39;;;;;;;62.33;24.00;;;;;;;21.78;47.87;93484.94;5027213;28;20045;-86
2022/06/03 11:17:11;;;;;;;56.30;20.52;;;;;;;21.76;47.70;93481.97;4957535;28;20112;-85
2022/06/03 11:19:46;;;;;;;57.97;22.90;;;;;;;21.78;48.13;93475.94;4935767;28;20225;-85
2022/06/03 11:22:25;;;;;;;56.33;19.50;;;;;;;21.79;47.85;93480.16;4950901;28;20085;-85
2022/06/03 11:24:53;;;;;;;48.95;21.35;;;;;;;21.79;48.10;93482.91;4948358;28;20284;-85
2022/06/03 11:27:37;;;;;;;43.15;18.95;;;;;;;21.78;47.75;93460.16;4915654;29;20071;-86
2022/06/03 11:30:08;;;;;;;45.35;20.77;;;;;;;21.77;47.91;93463.44;4903660;29;20040;-85
2022/06/03 11:32:33;;;;;;;43.40;16.77;;;;;;;21.77;47.97;93466.94;4916381;29;20050;-85
2022/06/03 11:35:08;;;;;;;46.92;17.20;;;;;;;21.75;48.02;93457.72;4931456;29;20035;-84
2022/06/03 11:37:37;;;;;;;39.72;16.77;;;;;;;21.76;48.09;93459.22;4916080;29;20051;-86
2022/06/03 11:40:12;;;;;;;31.58;16.38;;;;;;;21.79;47.75;93452.66;4915013;29;20902;-85
2022/06/03 11:42:52;;;;;;;35.50;17.27;;;;;;;21.78;47.81;93460.16;4897557;29;20119;-84
2022/06/03 11:45:33;;;;;;;57.83;23.00;;;;;;;21.82;49.28;93448.84;4897801;29;20040;-86
2022/06/03 11:48:03;;;;;;;69.53;33.92;;;;;;;21.81;47.96;93453.59;4898015;29;20111;-85
2022/06/03 11:50:28;;;;;;;52.85;24.58;;;;;;;21.82;47.92;93454.34;4896554;29;20476;-85
2022/06/03 11:52:54;;;;;;;42.75;20.45;;;;;;;21.79;47.65;93449.91;4888642;28;20054;-84
2022/06/03 11:55:20;;;;;;;56.70;26.63;;;;;;;21.79;48.10;93453.38;5026454;28;20041;-85
2022/06/03 11:57:52;;;;;;;54.45;26.13;;;;;;;21.79;47.84;93441.63;5011358;28;20041;-86
2022/06/03 12:00:20;;;;;;;59.10;33.63;;;;;;;21.80;47.80;93449.38;5026795;28;20064;-85
2022/06/03 12:02:56;;;;;;;43.28;20.85;;;;;;;21.79;47.79;93447.16;5028871;28;20037;-85
2022/06/03 12:05:25;;;;;;;44.47;24.67;;;;;;;21.81;47.74;93450.84;5011846;28;20041;-85
2022/06/03 12:08:09;;;;;;;61.42;27.20;;;;;;;21.83;47.66;93444.81;5013128;28;20121;-87
2022/06/03 12:10:34;;;;;;;45.40;25.02;;;;;;;21.82;47.73;93443.34;5023296;28;20042;-85
2022/06/03 12:13:30;;;;;;;58.60;29.98;;;;;;;21.79;47.66;93434.13;5006179;28;20049;-86
2022/06/03 12:15:58;;;;;;;37.10;20.45;;;;;;;21.81;47.92;93439.09;5009938;28;20497;-86
2022/06/03 12:18:34;;;;;;;40.35;19.48;;;;;;;21.81;47.67;93444.59;5009494;28;20409;-86
2022/06/03 12:21:05;;;;;;;48.58;24.20;;;;;;;21.81;47.67;93459.09;5008631;28;20515;-85
2022/06/03 12:23:36;;;;;;;38.42;19.70;;;;;;;21.81;47.83;93453.59;5008866;28;20400;-86
2022/06/03 12:26:05;;;;;;;45.45;18.75;;;;;;;21.85;47.81;93456.03;5036692;28;20492;-87
2022/06/03 12:28:37;;;;;;;73.82;23.45;;;;;;;21.86;47.78;93463.00;5049819;28;20266;-87
2022/06/03 12:31:03;;;;;;;61.28;23.73;;;;;;;21.87;48.74;93464.47;5032647;28;20132;-86
2022/06/03 12:33:54;;;;;;;73.25;25.73;;;;;;;21.87;48.60;93458.97;5032099;28;20071;-87